sensor_id;sensor_type;location;lat;lon;timestamp;P1;durP1;ratioP1;P2;durP2;ratioP2
21705;SDS011;11014;53.076;18.208;2023-02-13T14:18:27;6.22;;;3.75;;
21705;SDS011;11014;53.076;18.208;2023-02-13T14:20:58;6.55;;;3.47;;
21705;SDS011;11014;53.076;18.208;2023-02-13T14:23:31;10.32;;;4.00;;
21705;SDS011;11014;53.076;18.208;2023-02-13T14:31:20;8.00;;;3.40;;
21705;SDS011;11014;53.076;18.208;2023-02-13T14:36:33;7.38;;;4.50;;
21705;SDS011;11014;53.076;18.208;2023-02-13T14:39:04;12.98;;;4.82;;
21705;SDS011;11014;53.076;18.208;2023-02-13T14:44:18;9.77;;;4.10;;
21705;SDS011;11014;53.076;18.208;2023-02-13T14:47:12;9.75;;;4.00;;
21705;SDS011;11014;53.076;18.208;2023-02-13T14:49:50;6.30;;;3.03;;
21705;SDS011;11014;53.076;18.208;2023-02-13T14:52:24;6.63;;;3.17;;
21705;SDS011;11014;53.076;18.208;2023-02-13T14:55:00;10.60;;;4.00;;
21705;SDS011;11014;53.076;18.208;2023-02-13T14:57:46;5.65;;;3.97;;
21705;SDS011;11014;53.076;18.208;2023-02-13T15:00:26;6.85;;;3.95;;
21705;SDS011;11014;53.076;18.208;2023-02-13T15:03:04;11.57;;;5.80;;
21705;SDS011;11014;53.076;18.208;2023-02-13T15:05:44;13.18;;;5.65;;
21705;SDS011;11014;53.076;18.208;2023-02-13T15:08:20;5.28;;;3.05;;
21705;SDS011;11014;53.076;18.208;2023-02-13T15:10:56;10.27;;;5.07;;
21705;SDS011;11014;53.076;18.208;2023-02-13T15:13:32;7.63;;;4.15;;
21705;SDS011;11014;53.076;18.208;2023-02-13T15:16:07;6.40;;;3.85;;
21705;SDS011;11014;53.076;18.208;2023-02-13T15:18:45;11.10;;;5.03;;
21705;SDS011;11014;53.076;18.208;2023-02-13T15:21:20;4.57;;;2.50;;
21705;SDS011;11014;53.076;18.208;2023-02-13T15:23:54;8.10;;;3.97;;
21705;SDS011;11014;53.076;18.208;2023-02-13T15:26:24;9.70;;;4.35;;
21705;SDS011;11014;53.076;18.208;2023-02-13T15:28:58;9.48;;;4.25;;
21705;SDS011;11014;53.076;18.208;2023-02-13T15:34:52;13.30;;;4.75;;
21705;SDS011;11014;53.076;18.208;2023-02-13T15:37:21;6.72;;;4.32;;
21705;SDS011;11014;53.076;18.208;2023-02-13T15:39:51;15.50;;;6.80;;
21705;SDS011;11014;53.076;18.208;2023-02-13T15:42:19;7.40;;;3.45;;
21705;SDS011;11014;53.076;18.208;2023-02-13T15:44:50;13.63;;;6.47;;
21705;SDS011;11014;53.076;18.208;2023-02-13T15:47:34;8.32;;;4.00;;
21705;SDS011;11014;53.076;18.208;2023-02-13T15:50:04;7.97;;;3.42;;
21705;SDS011;11014;53.076;18.208;2023-02-13T15:52:46;6.78;;;3.67;;
21705;SDS011;11014;53.076;18.208;2023-02-13T15:55:19;7.95;;;4.05;;
21705;SDS011;11014;53.076;18.208;2023-02-13T15:57:54;8.25;;;4.22;;
21705;SDS011;11014;53.076;18.208;2023-02-13T16:03:22;5.53;;;2.60;;
21705;SDS011;11014;53.076;18.208;2023-02-13T16:05:54;4.50;;;2.65;;
21705;SDS011;11014;53.076;18.208;2023-02-13T16:08:27;6.43;;;3.60;;
21705;SDS011;11014;53.076;18.208;2023-02-13T16:14:47;6.63;;;3.83;;
21705;SDS011;11014;53.076;18.208;2023-02-13T16:17:22;10.02;;;5.13;;
21705;SDS011;11014;53.076;18.208;2023-02-13T16:20:06;8.85;;;5.05;;
21705;SDS011;11014;53.076;18.208;2023-02-13T16:22:39;8.93;;;3.95;;
21705;SDS011;11014;53.076;18.208;2023-02-13T16:30:45;16.45;;;8.10;;
21705;SDS011;11014;53.076;18.208;2023-02-13T16:33:47;8.70;;;4.40;;
21705;SDS011;11014;53.076;18.208;2023-02-13T16:36:26;10.67;;;4.40;;
21705;SDS011;11014;53.076;18.208;2023-02-13T16:39:09;8.40;;;4.45;;
21705;SDS011;11014;53.076;18.208;2023-02-13T16:41:48;7.10;;;4.47;;
21705;SDS011;11014;53.076;18.208;2023-02-13T16:44:21;8.63;;;3.75;;
21705;SDS011;11014;53.076;18.208;2023-02-13T16:49:52;8.77;;;4.25;;
21705;SDS011;11014;53.076;18.208;2023-02-13T16:52:24;5.25;;;3.10;;
21705;SDS011;11014;53.076;18.208;2023-02-13T16:57:48;9.32;;;3.45;;
21705;SDS011;11014;53.076;18.208;2023-02-13T17:00:17;8.57;;;4.53;;
21705;SDS011;11014;53.076;18.208;2023-02-13T17:02:52;8.07;;;4.32;;
21705;SDS011;11014;53.076;18.208;2023-02-13T17:05:21;10.43;;;5.00;;
21705;SDS011;11014;53.076;18.208;2023-02-13T17:11:02;24.35;;;13.32;;
21705;SDS011;11014;53.076;18.208;2023-02-13T17:13:33;9.83;;;5.20;;
21705;SDS011;11014;53.076;18.208;2023-02-13T17:16:01;11.90;;;7.50;;
21705;SDS011;11014;53.076;18.208;2023-02-13T17:18:32;12.77;;;6.70;;
21705;SDS011;11014;53.076;18.208;2023-02-13T17:21:02;9.00;;;5.20;;
21705;SDS011;11014;53.076;18.208;2023-02-13T17:23:35;13.43;;;8.32;;
21705;SDS011;11014;53.076;18.208;2023-02-13T17:26:03;11.15;;;5.65;;
21705;SDS011;11014;53.076;18.208;2023-02-13T17:28:32;10.07;;;6.90;;
21705;SDS011;11014;53.076;18.208;2023-02-13T17:31:03;10.30;;;5.38;;
21705;SDS011;11014;53.076;18.208;2023-02-13T17:36:32;11.05;;;6.78;;
21705;SDS011;11014;53.076;18.208;2023-02-13T17:39:01;8.05;;;3.67;;
21705;SDS011;11014;53.076;18.208;2023-02-13T17:41:30;12.05;;;5.30;;
21705;SDS011;11014;53.076;18.208;2023-02-13T17:44:03;9.98;;;5.63;;
21705;SDS011;11014;53.076;18.208;2023-02-13T17:46:32;10.02;;;5.90;;
21705;SDS011;11014;53.076;18.208;2023-02-13T17:49:02;12.60;;;6.07;;
21705;SDS011;11014;53.076;18.208;2023-02-13T17:51:31;13.57;;;7.47;;
21705;SDS011;11014;53.076;18.208;2023-02-13T17:54:02;12.48;;;5.53;;
21705;SDS011;11014;53.076;18.208;2023-02-13T17:56:30;21.17;;;8.52;;
21705;SDS011;11014;53.076;18.208;2023-02-13T17:58:59;15.05;;;7.15;;
21705;SDS011;11014;53.076;18.208;2023-02-13T18:01:30;15.38;;;6.28;;
21705;SDS011;11014;53.076;18.208;2023-02-13T18:03:58;17.25;;;7.90;;
21705;SDS011;11014;53.076;18.208;2023-02-13T18:06:27;16.85;;;7.40;;
21705;SDS011;11014;53.076;18.208;2023-02-13T18:09:05;17.83;;;7.10;;
21705;SDS011;11014;53.076;18.208;2023-02-13T18:11:45;17.13;;;8.52;;
21705;SDS011;11014;53.076;18.208;2023-02-13T18:14:30;19.23;;;9.77;;
21705;SDS011;11014;53.076;18.208;2023-02-13T18:17:00;19.50;;;9.27;;
21705;SDS011;11014;53.076;18.208;2023-02-13T18:19:29;19.90;;;8.98;;
21705;SDS011;11014;53.076;18.208;2023-02-13T18:21:57;19.25;;;10.05;;
21705;SDS011;11014;53.076;18.208;2023-02-13T18:24:29;16.27;;;8.65;;
21705;SDS011;11014;53.076;18.208;2023-02-13T18:26:58;19.05;;;10.13;;
21705;SDS011;11014;53.076;18.208;2023-02-13T18:29:28;17.60;;;9.00;;
21705;SDS011;11014;53.076;18.208;2023-02-13T18:31:56;17.63;;;9.35;;
21705;SDS011;11014;53.076;18.208;2023-02-13T18:34:25;21.50;;;10.02;;
21705;SDS011;11014;53.076;18.208;2023-02-13T18:36:53;22.95;;;10.18;;
21705;SDS011;11014;53.076;18.208;2023-02-13T18:39:21;21.88;;;9.85;;
21705;SDS011;11014;53.076;18.208;2023-02-13T18:41:50;20.42;;;9.75;;
21705;SDS011;11014;53.076;18.208;2023-02-13T18:44:19;19.70;;;10.07;;
21705;SDS011;11014;53.076;18.208;2023-02-13T18:46:55;26.77;;;13.02;;
21705;SDS011;11014;53.076;18.208;2023-02-13T18:49:24;18.77;;;9.63;;
21705;SDS011;11014;53.076;18.208;2023-02-13T18:51:53;24.95;;;12.00;;
21705;SDS011;11014;53.076;18.208;2023-02-13T18:54:22;20.30;;;9.65;;
21705;SDS011;11014;53.076;18.208;2023-02-13T18:56:50;17.48;;;7.97;;
21705;SDS011;11014;53.076;18.208;2023-02-13T18:59:20;18.52;;;9.75;;
21705;SDS011;11014;53.076;18.208;2023-02-13T19:01:49;12.13;;;5.63;;
21705;SDS011;11014;53.076;18.208;2023-02-13T19:04:18;16.15;;;8.88;;
21705;SDS011;11014;53.076;18.208;2023-02-13T19:10:06;17.38;;;9.00;;
21705;SDS011;11014;53.076;18.208;2023-02-13T19:12:35;20.60;;;10.20;;
21705;SDS011;11014;53.076;18.208;2023-02-13T19:15:04;15.60;;;8.55;;
21705;SDS011;11014;53.076;18.208;2023-02-13T19:17:33;28.33;;;11.90;;
21705;SDS011;11014;53.076;18.208;2023-02-13T19:20:03;21.70;;;10.50;;
21705;SDS011;11014;53.076;18.208;2023-02-13T19:22:32;21.75;;;10.32;;
21705;SDS011;11014;53.076;18.208;2023-02-13T19:25:01;24.80;;;12.60;;
21705;SDS011;11014;53.076;18.208;2023-02-13T19:30:25;17.08;;;8.65;;
21705;SDS011;11014;53.076;18.208;2023-02-13T19:32:57;24.00;;;11.80;;
21705;SDS011;11014;53.076;18.208;2023-02-13T19:35:26;17.92;;;8.73;;
21705;SDS011;11014;53.076;18.208;2023-02-13T19:37:54;15.88;;;9.13;;
21705;SDS011;11014;53.076;18.208;2023-02-13T19:40:23;17.33;;;8.60;;
21705;SDS011;11014;53.076;18.208;2023-02-13T20:45:14;12.75;;;5.30;;
21705;SDS011;11014;53.076;18.208;2023-02-13T21:10:09;15.05;;;6.50;;
21705;SDS011;11014;53.076;18.208;2023-02-13T21:12:41;14.52;;;6.90;;
21705;SDS011;11014;53.076;18.208;2023-02-13T21:15:10;11.52;;;6.78;;
21705;SDS011;11014;53.076;18.208;2023-02-13T21:17:39;12.45;;;7.20;;
21705;SDS011;11014;53.076;18.208;2023-02-13T21:20:07;15.32;;;7.90;;
21705;SDS011;11014;53.076;18.208;2023-02-13T21:22:37;10.75;;;6.88;;
21705;SDS011;11014;53.076;18.208;2023-02-13T21:25:05;15.23;;;8.43;;
21705;SDS011;11014;53.076;18.208;2023-02-13T21:27:34;12.52;;;5.70;;
21705;SDS011;11014;53.076;18.208;2023-02-13T21:30:03;17.00;;;8.07;;
21705;SDS011;11014;53.076;18.208;2023-02-13T21:32:32;13.85;;;6.57;;
21705;SDS011;11014;53.076;18.208;2023-02-13T21:35:01;13.38;;;6.55;;
21705;SDS011;11014;53.076;18.208;2023-02-13T21:37:30;11.70;;;5.90;;
21705;SDS011;11014;53.076;18.208;2023-02-13T21:39:59;12.13;;;6.47;;
21705;SDS011;11014;53.076;18.208;2023-02-13T21:42:28;11.57;;;5.95;;
21705;SDS011;11014;53.076;18.208;2023-02-13T21:44:57;12.20;;;6.72;;
21705;SDS011;11014;53.076;18.208;2023-02-13T21:47:25;10.38;;;6.35;;
21705;SDS011;11014;53.076;18.208;2023-02-13T21:49:54;10.70;;;5.65;;
21705;SDS011;11014;53.076;18.208;2023-02-13T21:52:23;12.35;;;6.07;;
21705;SDS011;11014;53.076;18.208;2023-02-13T21:54:51;13.23;;;7.88;;
21705;SDS011;11014;53.076;18.208;2023-02-13T21:57:20;14.32;;;8.07;;
21705;SDS011;11014;53.076;18.208;2023-02-13T21:59:48;14.10;;;8.00;;
21705;SDS011;11014;53.076;18.208;2023-02-13T22:02:17;16.90;;;7.55;;
21705;SDS011;11014;53.076;18.208;2023-02-13T22:04:46;9.57;;;6.75;;
21705;SDS011;11014;53.076;18.208;2023-02-13T22:07:15;14.68;;;7.25;;
21705;SDS011;11014;53.076;18.208;2023-02-13T22:09:43;11.77;;;6.25;;
21705;SDS011;11014;53.076;18.208;2023-02-13T22:12:12;15.07;;;8.05;;
21705;SDS011;11014;53.076;18.208;2023-02-13T22:14:40;15.05;;;7.88;;
21705;SDS011;11014;53.076;18.208;2023-02-13T22:17:09;13.57;;;7.68;;
21705;SDS011;11014;53.076;18.208;2023-02-13T22:19:37;13.45;;;6.63;;
21705;SDS011;11014;53.076;18.208;2023-02-13T22:22:06;16.02;;;8.13;;
21705;SDS011;11014;53.076;18.208;2023-02-13T22:24:36;14.82;;;7.70;;
21705;SDS011;11014;53.076;18.208;2023-02-13T22:27:05;17.70;;;8.52;;
21705;SDS011;11014;53.076;18.208;2023-02-13T22:29:34;15.48;;;8.68;;
21705;SDS011;11014;53.076;18.208;2023-02-13T22:32:04;15.93;;;7.22;;
21705;SDS011;11014;53.076;18.208;2023-02-13T22:34:32;14.93;;;8.20;;
21705;SDS011;11014;53.076;18.208;2023-02-13T22:39:54;13.65;;;7.10;;
21705;SDS011;11014;53.076;18.208;2023-02-13T22:42:23;15.93;;;8.27;;
21705;SDS011;11014;53.076;18.208;2023-02-13T22:44:51;8.88;;;4.53;;
21705;SDS011;11014;53.076;18.208;2023-02-13T22:47:20;12.00;;;6.32;;
21705;SDS011;11014;53.076;18.208;2023-02-13T22:49:48;16.58;;;7.82;;
21705;SDS011;11014;53.076;18.208;2023-02-13T22:52:17;13.23;;;6.95;;
21705;SDS011;11014;53.076;18.208;2023-02-13T22:54:46;15.70;;;8.55;;
21705;SDS011;11014;53.076;18.208;2023-02-13T22:57:14;22.48;;;9.40;;
21705;SDS011;11014;53.076;18.208;2023-02-13T22:59:43;20.60;;;9.82;;
21705;SDS011;11014;53.076;18.208;2023-02-13T23:02:11;18.65;;;9.23;;
21705;SDS011;11014;53.076;18.208;2023-02-13T23:04:40;20.65;;;10.48;;
21705;SDS011;11014;53.076;18.208;2023-02-13T23:07:09;13.40;;;7.28;;
21705;SDS011;11014;53.076;18.208;2023-02-13T23:09:39;19.42;;;9.20;;
21705;SDS011;11014;53.076;18.208;2023-02-13T23:12:08;18.50;;;9.27;;
21705;SDS011;11014;53.076;18.208;2023-02-13T23:14:56;14.50;;;7.10;;
21705;SDS011;11014;53.076;18.208;2023-02-13T23:17:26;18.63;;;10.23;;
21705;SDS011;11014;53.076;18.208;2023-02-13T23:20:12;14.98;;;7.93;;
21705;SDS011;11014;53.076;18.208;2023-02-13T23:22:41;15.18;;;7.43;;
21705;SDS011;11014;53.076;18.208;2023-02-13T23:25:10;18.45;;;9.15;;
21705;SDS011;11014;53.076;18.208;2023-02-13T23:27:39;13.77;;;8.18;;
21705;SDS011;11014;53.076;18.208;2023-02-13T23:30:08;12.65;;;7.68;;
21705;SDS011;11014;53.076;18.208;2023-02-13T23:32:39;13.63;;;8.38;;
21705;SDS011;11014;53.076;18.208;2023-02-13T23:35:08;16.15;;;9.02;;
21705;SDS011;11014;53.076;18.208;2023-02-13T23:37:37;16.17;;;8.95;;
21705;SDS011;11014;53.076;18.208;2023-02-13T23:43:50;13.35;;;8.55;;
21705;SDS011;11014;53.076;18.208;2023-02-13T23:46:18;15.60;;;9.10;;
21705;SDS011;11014;53.076;18.208;2023-02-13T23:48:47;21.40;;;10.82;;
21705;SDS011;11014;53.076;18.208;2023-02-13T23:51:16;19.35;;;8.40;;
21705;SDS011;11014;53.076;18.208;2023-02-13T23:53:45;15.45;;;9.25;;
21705;SDS011;11014;53.076;18.208;2023-02-13T23:56:13;14.90;;;10.15;;
21705;SDS011;11014;53.076;18.208;2023-02-13T23:58:42;13.75;;;8.43;;
